Αρχική σελίδα
METAR-TAF:

METAR-TAF

Αεροδρόμια :

Βαγδάτη, Ιράκ

γεωγραφικό πλάτος: 33-15-45N, γεωγραφικό μήκος: 44-14-04E, υψόμετρο: 35 μ

Παρών καιρός

Η αναφορά έγινε 16 λεπτά πριν, στις 23:00 UTC
Άνεμος 8 kt από ΝA
Θερμοκρασία 19°C
Υγρασία 88%
Πίεση 1015 hPa
Ορατότητα 10 χλμ και άνω
Δεν υπάρχουν νέφη με βάση κάτω από τα 1500 μ. και δεν υπάρχουν νέφη σωρειτομελανίτες.

METAR: ORBI 212300Z 14008KT CAVOK 19/17 Q1015

Χρόνος: 02:16 (23:16 UTC)

Πρόγνωση Καιρού

Η αναφορά έγινε 7 ώρες και 16 λεπτά πριν, στις 16:00 UTC
Η πρόγνωση ισχύει από τις 21 στις 18 UTC έως τις 22 στις 18 UTC
Άνεμος 12 kt από ΝA
Ορατότητα: 4000 μ
Λίγα νέφη σε ύψος 2500 πόδια, Σωρειτομελανίτες.
Διάσπαρτα νέφη σε ύψος 3000 πόδια
Αρκετά νέφη σε ύψος 3300 πόδια
Καθιστάμενος
από 22 στις 01 UTC έως τις 22 στις 03 UTC
Ορατότητα: 8000 μ

TAF: ORBI 211600Z 2118/2218 14012KT 4000 TSSHRA FEW025CB SCT030 BKN033 BECMG 2201/2203 8000 NSC

Μετεωρολογικές αναφορές και προγνώσεις για περισσότερα από 4000 αεροδρόμια (δελτία METAR και TAF).

Οι διαθέσιμοι σταθμοί απεικονίζονται στο χάρτη με κίτρινες και κόκκινες κουκκίδες.

Μετακινήστε το ποντίκι πάνω από τις κουκκίδες για να δείτε το όνομα του σταθμού.

Στη συνέχεια, κάντε κλικ για να δείτε τις μετεωρολογικές αναφορές και τις προγνώσεις καιρού.

Για να αλλάξετε το χάρτη: κάντε κλικ στα πράσινα κουμπιά με τον μαύρο σταυρό για να ζουμάρετε, στο πράσινο κουμπί με την παύλα για να αφαιρέσετε το ζουμ ή στα πράσινα βέλη για να αντιπαραβάλλετε χάρτες.


METAR-TAF: